Time;durP1;ratioP1;P1;durP2;ratioP2;P2;SDS_P1;SDS_P2;PMS_P1;PMS_P2;Temp;Humidity;BMP_temperature;BMP_pressure;BME280_temperature;BME280_humidity;BME280_pressure;Samples;Min_cycle;Max_cycle;Signal;HPM_P1;HPM_P2
2021/12/21 00:01:55;;;;;;;34.53;32.63;;;;;;;20.25;40.05;102595.97;4901388;29;20371;-82
2021/12/21 00:04:20;;;;;;;34.72;32.72;;;;;;;20.26;39.67;102602.28;4906919;29;20035;-82
2021/12/21 00:06:45;;;;;;;34.55;32.40;;;;;;;20.24;39.86;102602.56;4918754;29;20385;-82
2021/12/21 00:09:11;;;;;;;35.45;33.17;;;;;;;20.23;39.57;102609.09;4902516;29;20389;-82
2021/12/21 00:11:37;;;;;;;36.50;34.30;;;;;;;20.23;39.66;102606.38;4934829;29;20044;-82
2021/12/21 00:14:18;;;;;;;33.92;32.03;;;;;;;20.21;39.51;102600.34;4924624;29;20099;-82
2021/12/21 00:22:09;;;;;;;35.95;33.67;;;;;;;20.17;39.50;102601.94;4924074;29;20052;-82
2021/12/21 00:24:45;;;;;;;35.40;33.45;;;;;;;20.17;39.24;102593.72;4903027;29;20036;-81
2021/12/21 00:27:10;;;;;;;34.47;32.50;;;;;;;20.16;39.51;102596.69;4897445;29;20059;-82
2021/12/21 00:29:36;;;;;;;37.10;34.95;;;;;;;20.14;39.54;102594.25;4922296;29;20071;-82
2021/12/21 00:32:01;;;;;;;36.33;34.13;;;;;;;20.13;39.36;102589.81;4929495;29;20040;-82
2021/12/21 00:34:27;;;;;;;35.33;33.25;;;;;;;20.12;39.47;102585.44;4927238;29;20040;-82
2021/12/21 00:36:52;;;;;;;36.70;34.75;;;;;;;20.11;39.58;102589.28;4931758;29;20044;-82
2021/12/21 00:39:18;;;;;;;35.22;33.13;;;;;;;20.10;39.61;102591.19;4918242;29;20068;-81
2021/12/21 00:41:43;;;;;;;36.60;34.50;;;;;;;20.08;39.41;102596.13;4917445;29;20037;-82
2021/12/21 00:44:08;;;;;;;34.90;32.95;;;;;;;20.07;39.63;102586.22;4920937;29;20454;-82
2021/12/21 00:46:34;;;;;;;35.63;33.42;;;;;;;20.07;39.56;102580.72;4922609;29;20028;-81
2021/12/21 00:49:12;;;;;;;34.50;32.47;;;;;;;20.06;39.65;102581.00;4926937;29;20079;-82
2021/12/21 00:51:38;;;;;;;34.45;32.60;;;;;;;20.04;39.57;102577.69;4922097;29;20112;-81
2021/12/21 00:54:03;;;;;;;34.88;32.78;;;;;;;20.03;39.38;102579.63;4921554;29;20440;-82
2021/12/21 00:56:28;;;;;;;35.90;33.58;;;;;;;20.02;39.36;102575.22;4933007;29;20032;-82
2021/12/21 00:58:54;;;;;;;36.00;33.90;;;;;;;20.02;39.25;102574.38;4918406;29;20110;-82
2021/12/21 01:01:19;;;;;;;34.67;32.67;;;;;;;20.00;39.16;102573.81;4911318;29;20202;-82
2021/12/21 01:03:49;;;;;;;35.25;33.25;;;;;;;19.99;39.47;102564.75;4917394;29;20103;-82
2021/12/21 01:06:27;;;;;;;34.30;32.28;;;;;;;19.97;39.51;102566.94;4924736;29;20059;-82
2021/12/21 01:11:43;;;;;;;34.58;32.33;;;;;;;19.94;39.18;102564.72;4922721;29;20103;-82
2021/12/21 01:17:16;;;;;;;35.28;33.15;;;;;;;19.89;39.51;102568.25;4927922;29;20043;-82
2021/12/21 01:19:46;;;;;;;34.28;32.40;;;;;;;19.88;39.10;102563.00;4917431;29;20036;-82
2021/12/21 01:24:56;;;;;;;34.35;32.22;;;;;;;19.84;39.76;102573.69;4916932;29;20048;-81
2021/12/21 01:27:53;;;;;;;34.78;32.85;;;;;;;19.82;39.42;102569.56;4919771;29;20063;-82
2021/12/21 01:30:19;;;;;;;;;;;;;;;19.79;39.42;102570.06;4917321;29;20417;-82
2021/12/21 01:35:18;;;;;;;32.78;30.98;;;;;;;19.76;39.45;102565.94;4924916;29;20040;-82
2021/12/21 01:40:40;;;;;;;33.65;31.67;;;;;;;19.74;39.32;102556.31;4917288;29;20512;-82
2021/12/21 01:51:07;;;;;;;33.83;31.92;;;;;;;19.68;39.42;102552.72;4917601;29;20076;-81
2021/12/21 01:53:33;;;;;;;34.67;32.60;;;;;;;19.66;39.27;102552.94;4935900;29;20059;-81
2021/12/21 01:55:59;;;;;;;34.67;32.65;;;;;;;19.66;39.27;102552.94;4908931;29;20048;-82
2021/12/21 01:58:25;;;;;;;34.10;32.13;;;;;;;19.66;39.20;102552.09;4923801;29;20609;-82
2021/12/21 02:00:50;;;;;;;35.28;33.38;;;;;;;19.64;39.31;102552.34;4928732;29;20119;-82
2021/12/21 02:03:16;;;;;;;34.17;32.08;;;;;;;19.64;39.33;102548.78;4932841;29;20488;-82
2021/12/21 02:05:41;;;;;;;34.15;32.35;;;;;;;19.63;39.44;102547.13;4929263;29;20040;-82
2021/12/21 02:08:07;;;;;;;32.90;31.10;;;;;;;19.61;39.12;102533.69;4915651;29;20063;-82
2021/12/21 02:10:32;;;;;;;35.60;33.55;;;;;;;19.61;38.90;102535.63;4925115;29;20110;-82
2021/12/21 02:12:58;;;;;;;35.78;33.67;;;;;;;19.60;39.28;102537.50;4932590;29;20114;-81
2021/12/21 02:15:25;;;;;;;34.30;32.40;;;;;;;19.60;39.23;102540.25;4925794;29;20100;-81
2021/12/21 02:18:29;;;;;;;34.85;32.80;;;;;;;19.60;39.37;102536.69;4919782;29;20036;-81
2021/12/21 02:20:55;;;;;;;;;;;;;;;19.56;39.29;102541.88;4931238;29;21490;-81
2021/12/21 02:23:42;;;;;;;32.72;30.77;;;;;;;19.56;39.26;102533.66;4914838;29;20058;-82
2021/12/21 02:29:09;;;;;;;32.80;31.08;;;;;;;19.53;39.43;102531.44;4902521;29;20198;-81
2021/12/21 02:31:33;;;;;;;32.88;31.08;;;;;;;19.52;39.32;102539.91;4916018;29;20539;-82
2021/12/21 02:33:58;;;;;;;33.67;31.67;;;;;;;19.52;39.26;102542.63;4918754;29;20032;-82
2021/12/21 02:36:24;;;;;;;32.85;31.02;;;;;;;19.51;39.39;102538.25;4916302;29;20077;-82
2021/12/21 02:38:49;;;;;;;35.42;33.38;;;;;;;19.51;39.11;102532.78;4914635;29;20036;-82
2021/12/21 02:41:15;;;;;;;32.28;30.38;;;;;;;19.50;39.12;102529.19;4932970;29;20040;-81
2021/12/21 02:43:40;;;;;;;33.67;31.77;;;;;;;19.48;39.26;102528.66;4932263;29;20453;-81
2021/12/21 02:46:07;;;;;;;32.80;30.90;;;;;;;19.48;38.95;102522.31;4930725;29;20044;-81
2021/12/21 02:48:33;;;;;;;33.38;31.30;;;;;;;19.46;39.13;102522.59;4915716;29;20148;-82
2021/12/21 02:50:58;;;;;;;35.55;33.42;;;;;;;19.45;39.43;102521.75;4926973;29;20492;-82
2021/12/21 02:53:24;;;;;;;32.95;31.15;;;;;;;19.45;38.96;102529.13;4934651;29;20050;-82
2021/12/21 02:55:49;;;;;;;35.00;33.00;;;;;;;19.45;39.05;102523.66;4933034;29;20070;-82
2021/12/21 02:58:15;;;;;;;33.88;31.83;;;;;;;19.44;39.17;102524.75;4934495;29;20078;-82
2021/12/21 03:00:40;;;;;;;34.22;32.33;;;;;;;19.42;39.21;102516.78;4921755;29;20036;-82
2021/12/21 03:03:12;;;;;;;34.05;32.17;;;;;;;19.41;39.13;102526.09;4921251;29;20530;-82
2021/12/21 03:05:38;;;;;;;32.90;31.15;;;;;;;19.41;39.39;102522.53;4933087;29;20066;-82
2021/12/21 03:08:15;;;;;;;33.72;31.80;;;;;;;19.38;38.99;102526.63;4933884;29;20042;-82
2021/12/21 03:10:58;;;;;;;32.07;30.27;;;;;;;19.38;39.24;102520.31;4931640;29;20428;-81
2021/12/21 03:16:07;;;;;;;32.83;30.92;;;;;;;19.36;39.25;102519.75;4932581;29;20054;-81
2021/12/21 03:18:32;;;;;;;32.58;30.70;;;;;;;19.34;39.30;102517.25;4928328;29;20396;-81
2021/12/21 03:20:58;;;;;;;33.88;31.92;;;;;;;19.34;39.28;102508.22;4898545;29;20067;-81
2021/12/21 03:23:23;;;;;;;33.53;31.42;;;;;;;19.33;39.29;102512.06;4915368;29;20194;-81
2021/12/21 03:25:48;;;;;;;32.70;30.92;;;;;;;19.31;39.03;102509.56;4913812;29;20039;-81
2021/12/21 03:28:14;;;;;;;32.78;30.80;;;;;;;19.30;39.29;102513.38;4918222;29;20042;-81
2021/12/21 03:30:39;;;;;;;33.65;31.65;;;;;;;19.31;39.30;102514.22;4914787;29;20056;-81
2021/12/21 03:33:05;;;;;;;33.42;31.40;;;;;;;19.29;39.22;102510.91;4935093;29;20504;-81
2021/12/21 03:35:30;;;;;;;33.95;32.05;;;;;;;19.28;39.09;102510.09;4914926;29;20067;-81
2021/12/21 03:37:56;;;;;;;34.70;32.70;;;;;;;19.27;39.25;102508.41;4916915;29;20039;-81
2021/12/21 03:40:21;;;;;;;33.75;31.73;;;;;;;19.26;39.43;102509.50;4919154;29;20028;-81
2021/12/21 03:42:47;;;;;;;32.90;30.90;;;;;;;19.26;39.24;102514.16;4919312;29;20040;-81
2021/12/21 03:45:12;;;;;;;33.92;31.92;;;;;;;19.24;39.18;102509.75;4923893;29;20382;-81
2021/12/21 03:47:37;;;;;;;33.33;31.58;;;;;;;19.23;39.22;102512.78;4898528;29;20032;-81
2021/12/21 03:50:12;;;;;;;33.65;31.70;;;;;;;19.22;39.16;102505.63;4914362;29;20032;-80
2021/12/21 03:52:37;;;;;;;33.15;31.30;;;;;;;19.20;39.05;102502.31;4915159;29;20036;-81
2021/12/21 03:55:04;;;;;;;33.80;31.63;;;;;;;19.19;39.15;102506.97;4913068;29;20032;-81
2021/12/21 03:57:30;;;;;;;32.47;30.60;;;;;;;19.19;39.16;102504.22;4932511;29;20041;-81
2021/12/21 03:59:56;;;;;;;34.38;32.15;;;;;;;19.18;39.15;102497.09;4932150;29;20478;-81
2021/12/21 04:02:23;;;;;;;33.80;31.65;;;;;;;19.18;39.23;102504.50;4931692;29;20043;-81
2021/12/21 04:04:49;;;;;;;33.67;31.55;;;;;;;19.17;39.11;102500.09;4915645;29;20031;-81
2021/12/21 04:07:15;;;;;;;32.60;30.58;;;;;;;19.15;39.18;102492.16;4915066;29;20040;-81
2021/12/21 04:09:40;;;;;;;32.25;30.45;;;;;;;19.15;39.18;102499.50;4925221;29;20075;-81
2021/12/21 04:12:06;;;;;;;33.53;31.60;;;;;;;19.14;38.94;102495.13;4932803;29;20036;-81
2021/12/21 04:14:33;;;;;;;32.65;30.85;;;;;;;19.13;39.05;102499.78;4920364;29;20552;-81
2021/12/21 04:16:58;;;;;;;33.80;31.83;;;;;;;19.12;38.88;102503.59;4913448;29;20040;-81
2021/12/21 04:19:24;;;;;;;32.42;30.45;;;;;;;19.11;38.78;102495.66;4918906;29;20043;-81
2021/12/21 04:21:50;;;;;;;31.42;29.48;;;;;;;19.10;39.14;102499.47;4932868;29;20170;-81
2021/12/21 04:24:15;;;;;;;31.92;30.17;;;;;;;19.09;39.20;102498.63;4932207;29;20036;-81
2021/12/21 04:26:41;;;;;;;32.13;30.17;;;;;;;19.08;38.99;102499.72;4923548;29;20031;-81
2021/12/21 04:29:07;;;;;;;32.80;30.80;;;;;;;19.07;39.03;102492.59;4920766;29;20037;-82
2021/12/21 04:31:32;;;;;;;31.83;29.92;;;;;;;19.07;39.09;102494.50;4919941;29;20047;-80
2021/12/21 04:33:58;;;;;;;31.92;30.00;;;;;;;19.06;39.15;102492.84;4909253;29;20036;-81
2021/12/21 04:36:24;;;;;;;32.00;30.23;;;;;;;19.06;39.17;102487.38;4918782;29;20039;-81
2021/12/21 04:38:51;;;;;;;31.85;30.05;;;;;;;19.03;39.12;102491.47;4914359;29;20122;-81
2021/12/21 04:41:25;;;;;;;33.80;31.60;;;;;;;19.03;39.31;102494.19;4929597;29;20067;-80
2021/12/21 04:43:52;;;;;;;33.70;31.20;;;;;;;19.03;39.24;102485.97;4903096;29;20040;-81
2021/12/21 04:46:18;;;;;;;32.90;30.75;;;;;;;19.02;39.19;102487.06;4912809;29;20055;-81
2021/12/21 04:48:43;;;;;;;33.20;31.20;;;;;;;19.00;39.32;102487.31;4935448;29;20468;-81
2021/12/21 04:51:09;;;;;;;35.38;33.17;;;;;;;18.99;39.43;102488.38;4907844;29;20096;-81
2021/12/21 04:53:34;;;;;;;32.95;31.05;;;;;;;18.98;39.14;102492.22;4928172;29;20103;-81
2021/12/21 04:56:02;;;;;;;34.60;32.63;;;;;;;18.96;39.39;102483.44;4917080;29;20028;-81
2021/12/21 04:58:28;;;;;;;31.63;29.90;;;;;;;18.97;39.12;102487.00;4924361;29;20039;-81
2021/12/21 05:00:53;;;;;;;31.52;29.58;;;;;;;18.95;39.15;102481.78;4917243;29;20071;-81
2021/12/21 05:03:19;;;;;;;33.47;31.55;;;;;;;18.94;39.09;102488.34;4922393;29;20038;-80
2021/12/21 05:05:44;;;;;;;32.80;30.95;;;;;;;18.94;39.16;102484.78;4918941;29;20499;-81
2021/12/21 05:08:18;;;;;;;33.72;31.83;;;;;;;18.93;39.38;102483.97;4918734;29;20032;-81
2021/12/21 05:10:53;;;;;;;32.65;30.90;;;;;;;18.92;39.11;102482.28;4917015;29;20425;-80
2021/12/21 05:13:22;;;;;;;32.10;30.25;;;;;;;18.92;39.25;102486.94;4921338;29;20039;-80
2021/12/21 05:15:47;;;;;;;32.35;30.65;;;;;;;18.91;39.37;102485.28;4935564;29;20027;-81
2021/12/21 05:18:15;;;;;;;32.88;30.75;;;;;;;18.89;39.33;102491.00;4918299;29;20446;-81
2021/12/21 05:20:41;;;;;;;32.25;30.55;;;;;;;18.90;39.17;102486.38;4935297;29;20063;-81
2021/12/21 05:23:07;;;;;;;31.95;30.05;;;;;;;18.89;39.22;102485.53;4916266;29;20039;-81
2021/12/21 05:25:33;;;;;;;31.98;30.08;;;;;;;18.88;39.18;102483.91;4900568;29;20318;-81
2021/12/21 05:27:58;;;;;;;31.40;29.60;;;;;;;18.87;39.25;102478.66;4922166;29;20111;-81
2021/12/21 05:30:25;;;;;;;31.92;29.88;;;;;;;18.86;39.32;102487.97;4927450;29;20071;-81
2021/12/21 05:32:51;;;;;;;31.30;29.60;;;;;;;18.86;39.29;102490.72;4931853;29;20040;-81
2021/12/21 05:35:17;;;;;;;32.30;30.40;;;;;;;18.85;39.25;102500.00;4935012;29;20036;-81
2021/12/21 05:37:43;;;;;;;31.95;30.02;;;;;;;18.84;39.32;102487.41;4917352;29;20043;-81
2021/12/21 05:40:14;;;;;;;32.50;30.50;;;;;;;18.83;39.29;102492.06;4934124;29;20445;-81
2021/12/21 05:42:41;;;;;;;30.48;28.67;;;;;;;18.83;39.20;102488.50;4930018;29;20028;-84
2021/12/21 05:45:09;;;;;;;33.75;31.67;;;;;;;18.82;39.29;102490.38;4923373;29;20063;-81
2021/12/21 05:47:34;;;;;;;30.98;29.27;;;;;;;18.81;39.38;102491.47;4930121;29;20104;-81
2021/12/21 05:50:00;;;;;;;32.30;30.40;;;;;;;18.80;39.17;102490.66;4917634;29;20032;-81
2021/12/21 05:52:25;;;;;;;30.95;29.05;;;;;;;18.80;39.34;102495.31;4927087;29;20280;-81
2021/12/21 05:54:51;;;;;;;30.90;29.23;;;;;;;18.80;39.64;102492.56;4916116;29;20473;-81
2021/12/21 05:57:17;;;;;;;32.67;30.75;;;;;;;18.79;39.47;102496.38;4915096;29;20039;-81
2021/12/21 05:59:42;;;;;;;31.73;29.92;;;;;;;18.77;39.58;102488.44;4921050;29;20487;-81
2021/12/21 06:02:08;;;;;;;32.30;30.52;;;;;;;18.78;39.45;102489.25;4919572;29;20032;-81
2021/12/21 06:04:34;;;;;;;32.63;30.73;;;;;;;18.76;39.50;102492.25;4922298;29;20054;-81
2021/12/21 06:06:59;;;;;;;31.83;29.92;;;;;;;18.77;39.60;102493.91;4904059;29;20044;-81
2021/12/21 06:09:26;;;;;;;31.48;29.50;;;;;;;18.76;39.68;102500.44;4926915;29;20492;-81
2021/12/21 06:25:35;;;;;;;32.42;30.52;;;;;;;18.71;39.73;102492.16;4925740;29;20046;-80
2021/12/21 06:28:03;;;;;;;29.40;27.80;;;;;;;18.70;39.44;102489.69;4916419;29;20059;-81
2021/12/21 06:30:29;;;;;;;30.55;28.80;;;;;;;18.69;39.71;102490.75;4915571;29;20056;-81
2021/12/21 06:32:55;;;;;;;31.88;30.08;;;;;;;18.70;39.74;102492.41;4905742;29;20385;-80
2021/12/21 06:35:20;;;;;;;34.17;32.17;;;;;;;18.69;39.83;102490.75;4930052;29;20050;-80
2021/12/21 06:37:46;;;;;;;32.75;30.00;;;;;;;18.69;39.60;102480.63;4931697;29;20031;-79
2021/12/21 06:40:12;;;;;;;33.22;31.30;;;;;;;18.70;39.64;102493.25;4898656;29;20035;-78
2021/12/21 06:42:39;;;;;;;32.50;30.27;;;;;;;18.69;39.80;102485.28;4915181;29;20035;-79
2021/12/21 06:45:12;;;;;;;33.10;31.00;;;;;;;18.70;39.85;102489.69;4931327;29;20036;-80
2021/12/21 06:53:05;;;;;;;33.05;30.52;;;;;;;18.71;41.72;102494.06;4929231;29;20051;-80
2021/12/21 06:55:31;;;;;;;31.35;28.90;;;;;;;18.71;41.83;102503.09;4909918;29;20048;-80
2021/12/21 06:57:56;;;;;;;31.85;29.10;;;;;;;18.72;42.07;102498.44;4926027;29;20040;-81
2021/12/21 07:00:21;;;;;;;32.35;29.73;;;;;;;18.73;42.12;102491.91;4898274;29;20044;-80
2021/12/21 07:02:47;;;;;;;30.88;29.02;;;;;;;18.73;42.13;102494.63;4908186;29;20175;-82
2021/12/21 07:05:13;;;;;;;31.00;28.95;;;;;;;18.74;42.15;102499.03;4895224;29;20032;-82
2021/12/21 07:07:39;;;;;;;31.05;29.05;;;;;;;18.74;41.96;102496.28;4931246;29;20489;-82
2021/12/21 07:10:08;;;;;;;31.52;29.48;;;;;;;18.75;41.95;102492.47;4898672;29;20032;-84
2021/12/21 07:20:28;;;;;;;31.83;29.77;;;;;;;18.77;41.74;102509.47;4926657;29;20119;-85
2021/12/21 07:22:53;;;;;;;31.27;29.38;;;;;;;18.79;42.03;102507.31;4927295;29;20126;-83
2021/12/21 07:25:19;;;;;;;33.00;30.77;;;;;;;18.79;41.88;102502.66;4914208;29;20465;-83
2021/12/21 07:27:44;;;;;;;31.58;29.42;;;;;;;18.81;41.86;102507.91;4926138;29;20039;-83
2021/12/21 07:30:10;;;;;;;30.88;29.00;;;;;;;18.83;42.03;102508.47;4921965;29;20059;-82
2021/12/21 07:32:36;;;;;;;31.85;29.98;;;;;;;18.86;41.84;102501.66;4930312;29;20038;-82
2021/12/21 07:35:03;;;;;;;31.23;29.33;;;;;;;18.88;41.76;102502.25;4926795;29;20456;-81
2021/12/21 07:37:29;;;;;;;31.98;29.90;;;;;;;18.89;42.08;102507.44;4928176;29;20038;-80
2021/12/21 07:39:54;;;;;;;31.77;29.75;;;;;;;18.90;42.32;102503.63;4911939;29;20043;-78
2021/12/21 07:42:20;;;;;;;33.35;31.20;;;;;;;18.93;42.44;102500.38;4930169;29;20035;-82
2021/12/21 07:44:46;;;;;;;30.65;28.85;;;;;;;18.95;42.67;102506.44;4927009;29;20040;-78
2021/12/21 07:47:12;;;;;;;32.20;30.10;;;;;;;18.97;42.57;102512.47;4931700;29;20191;-80
2021/12/21 07:49:38;;;;;;;31.45;29.35;;;;;;;18.99;42.63;102512.22;4926128;29;20438;-82
2021/12/21 07:52:07;;;;;;;32.70;30.90;;;;;;;19.01;42.94;102510.06;4928954;29;20039;-83
2021/12/21 07:54:33;;;;;;;31.65;29.73;;;;;;;19.02;42.86;102518.03;4928136;29;20437;-82
2021/12/21 07:56:59;;;;;;;33.20;30.90;;;;;;;19.05;42.75;102521.31;4930549;29;20040;-83
2021/12/21 07:59:24;;;;;;;33.42;31.52;;;;;;;19.07;42.98;102527.38;4929233;29;20040;-78
2021/12/21 08:01:50;;;;;;;31.88;29.77;;;;;;;19.08;42.83;102524.38;4930388;29;20456;-81
2021/12/21 08:04:16;;;;;;;32.28;30.30;;;;;;;19.11;42.93;102525.78;4933728;29;20440;-79
2021/12/21 08:06:44;;;;;;;31.48;29.75;;;;;;;19.12;43.10;102528.25;4931828;29;20071;-79
2021/12/21 08:09:10;;;;;;;32.13;30.33;;;;;;;19.13;43.15;102521.69;4930224;29;20464;-80
2021/12/21 08:14:03;;;;;;;32.85;30.92;;;;;;;19.17;43.61;102528.31;4935011;29;20047;-80
2021/12/21 08:16:28;;;;;;;34.22;32.13;;;;;;;19.19;43.13;102533.53;4932977;29;20040;-79
2021/12/21 08:18:54;;;;;;;33.75;31.63;;;;;;;19.19;42.90;102534.34;4931760;29;20054;-84
2021/12/21 08:21:20;;;;;;;35.42;32.30;;;;;;;19.22;43.12;102527.53;4931894;29;20035;-83
2021/12/21 08:23:46;;;;;;;34.13;32.08;;;;;;;19.24;43.16;102528.09;4932531;29;20539;-81
2021/12/21 08:26:12;;;;;;;33.78;31.48;;;;;;;19.26;43.14;102522.38;4933446;29;20469;-81
2021/12/21 08:28:37;;;;;;;35.15;32.95;;;;;;;19.27;43.00;102522.09;4931359;29;20115;-80
2021/12/21 08:31:03;;;;;;;34.20;31.88;;;;;;;19.29;43.18;102521.88;4934054;29;20110;-80
2021/12/21 08:33:28;;;;;;;34.03;32.03;;;;;;;19.30;42.87;102523.50;4914636;29;20035;-82
2021/12/21 08:35:54;;;;;;;33.55;31.45;;;;;;;19.31;42.99;102526.00;4899798;29;20158;-81
2021/12/21 08:38:20;;;;;;;34.75;32.65;;;;;;;19.32;42.70;102532.31;4897130;29;20078;-81
2021/12/21 08:40:49;;;;;;;34.40;32.20;;;;;;;19.34;42.66;102521.91;4911953;29;20113;-82
2021/12/21 08:43:23;;;;;;;33.83;31.42;;;;;;;19.34;42.70;102522.72;4914368;29;20123;-80
2021/12/21 08:45:51;;;;;;;33.67;31.88;;;;;;;19.36;42.64;102528.78;4929674;29;20051;-80
2021/12/21 08:48:17;;;;;;;34.65;32.40;;;;;;;19.37;42.52;102533.16;4915368;29;20039;-80
2021/12/21 08:50:43;;;;;;;35.75;33.22;;;;;;;19.38;42.48;102529.38;4911866;29;20040;-80
2021/12/21 08:53:09;;;;;;;34.25;32.08;;;;;;;19.40;42.30;102532.69;4915031;29;20043;-80
2021/12/21 08:55:35;;;;;;;35.45;33.15;;;;;;;19.40;42.42;102524.47;4907696;29;20075;-82
2021/12/21 08:58:00;;;;;;;35.67;32.90;;;;;;;19.42;42.17;102526.91;4915909;29;20071;-81
2021/12/21 09:00:26;;;;;;;35.33;33.13;;;;;;;19.43;42.32;102526.69;4929578;29;20418;-82
2021/12/21 09:02:51;;;;;;;35.47;33.40;;;;;;;19.44;42.00;102531.06;4914006;29;20063;-82
2021/12/21 09:05:21;;;;;;;35.70;33.25;;;;;;;19.45;41.93;102537.34;4900320;29;20055;-82
2021/12/21 09:07:48;;;;;;;34.38;32.08;;;;;;;19.46;42.16;102541.78;4928009;29;20036;-81
2021/12/21 09:10:18;;;;;;;34.92;32.92;;;;;;;19.48;42.17;102536.00;4927308;29;20557;-79
2021/12/21 09:12:44;;;;;;;36.25;33.95;;;;;;;19.49;42.22;102543.16;4923999;29;20930;-79
2021/12/21 09:15:12;;;;;;;34.28;32.17;;;;;;;19.50;41.75;102540.16;4924419;29;20032;-79
2021/12/21 09:17:42;;;;;;;37.88;35.20;;;;;;;19.51;41.83;102541.00;4921880;29;20449;-79
2021/12/21 09:20:09;;;;;;;35.60;33.40;;;;;;;19.52;41.91;102537.97;4927864;29;20042;-81
2021/12/21 09:22:36;;;;;;;36.17;33.73;;;;;;;19.54;42.12;102543.22;4921317;29;20128;-82
2021/12/21 09:25:03;;;;;;;35.88;33.58;;;;;;;19.55;41.88;102542.13;4927914;29;20066;-81
2021/12/21 09:27:28;;;;;;;35.42;33.33;;;;;;;19.56;41.93;102543.78;4913512;29;20075;-82
2021/12/21 09:29:53;;;;;;;37.60;35.42;;;;;;;19.57;42.23;102542.69;4910296;29;20126;-82
2021/12/21 09:32:19;;;;;;;37.22;34.83;;;;;;;19.58;41.97;102549.81;4910057;29;20463;-82
2021/12/21 09:34:46;;;;;;;37.92;35.53;;;;;;;19.58;41.93;102542.44;4914222;29;20078;-82
2021/12/21 09:37:19;;;;;;;35.13;33.15;;;;;;;19.59;41.98;102538.59;4899892;29;20035;-81
2021/12/21 09:39:48;;;;;;;37.97;35.58;;;;;;;19.60;41.86;102548.47;4927468;29;20028;-81
2021/12/21 09:42:17;;;;;;;35.03;32.83;;;;;;;19.61;41.95;102544.66;4928916;29;20027;-81
2021/12/21 09:44:43;;;;;;;;;;;;;;;19.59;41.89;102538.59;4930028;29;20460;-81
2021/12/21 09:47:10;;;;;;;35.30;32.95;;;;;;;19.61;41.91;102530.94;4899013;29;19922;-80
2021/12/21 09:49:39;;;;;;;37.35;35.03;;;;;;;19.62;41.84;102527.13;4925723;29;20075;-82
2021/12/21 09:52:07;;;;;;;35.92;33.70;;;;;;;19.63;41.67;102531.53;4913669;29;20042;-80
2021/12/21 09:54:33;;;;;;;35.30;33.15;;;;;;;19.64;42.07;102526.88;4910929;29;20036;-81
2021/12/21 09:56:59;;;;;;;36.17;33.67;;;;;;;19.65;41.88;102521.13;4911866;29;20032;-81
2021/12/21 09:59:25;;;;;;;37.22;35.13;;;;;;;19.67;41.86;102534.59;4927645;29;20039;-79
2021/12/21 10:01:51;;;;;;;37.03;34.60;;;;;;;19.68;41.97;102536.25;4912281;29;20043;-83
2021/12/21 10:04:17;;;;;;;36.95;34.60;;;;;;;19.69;41.84;102539.81;4911469;29;20050;-83
2021/12/21 10:06:49;;;;;;;38.58;36.17;;;;;;;19.71;41.67;102530.25;4895416;29;20051;-84
2021/12/21 10:09:16;;;;;;;37.55;35.25;;;;;;;19.71;41.78;102538.47;4929356;29;20054;-83
2021/12/21 10:11:44;;;;;;;37.92;35.45;;;;;;;19.73;41.57;102533.56;4913632;29;20051;-83
2021/12/21 10:14:11;;;;;;;36.33;34.03;;;;;;;19.73;42.00;102536.31;4913589;29;20040;-83
2021/12/21 10:16:36;;;;;;;37.67;34.97;;;;;;;19.74;42.06;102528.91;4910141;29;20034;-81
2021/12/21 10:19:05;;;;;;;36.63;34.42;;;;;;;19.77;42.01;102533.84;4914207;29;20040;-82
2021/12/21 10:21:30;;;;;;;37.00;34.63;;;;;;;19.78;41.92;102543.72;4912077;29;20046;-81
2021/12/21 10:23:57;;;;;;;35.65;33.45;;;;;;;19.78;41.84;102538.25;4896032;29;20481;-83
2021/12/21 10:26:26;;;;;;;36.33;34.25;;;;;;;19.79;42.14;102527.03;4924594;29;20119;-83
2021/12/21 10:29:01;;;;;;;36.65;34.45;;;;;;;19.80;42.00;102512.22;4923932;29;20680;-82
2021/12/21 10:31:28;;;;;;;35.03;32.92;;;;;;;19.81;42.22;102511.16;4928819;29;20055;-83
2021/12/21 10:33:56;;;;;;;38.38;36.08;;;;;;;19.82;41.84;102507.31;4911693;29;20123;-83
2021/12/21 10:36:23;;;;;;;;;;;;;;;19.81;42.41;102510.31;4909333;29;20044;-83
2021/12/21 10:39:00;;;;;;;35.47;33.38;;;;;;;19.82;42.36;102503.75;4926383;29;19986;-84
2021/12/21 10:41:44;;;;;;;36.05;33.92;;;;;;;19.83;42.04;102511.72;4925538;29;20477;-83
2021/12/21 10:44:13;;;;;;;35.50;33.28;;;;;;;19.84;42.12;102513.34;4930647;29;20051;-83
2021/12/21 10:46:53;;;;;;;37.38;35.17;;;;;;;19.85;42.43;102506.78;4911501;29;20031;-81
2021/12/21 10:49:27;;;;;;;35.40;33.35;;;;;;;19.85;42.44;102501.28;4928558;29;20406;-80
2021/12/21 10:52:07;;;;;;;38.20;36.00;;;;;;;19.87;42.42;102501.84;4910122;29;20098;-82
2021/12/21 10:54:44;;;;;;;36.20;34.13;;;;;;;19.88;42.36;102506.28;4930719;29;20040;-82
2021/12/21 10:57:15;;;;;;;36.20;33.97;;;;;;;19.89;42.15;102499.69;4908258;29;20050;-83
2021/12/21 10:59:43;;;;;;;38.25;36.03;;;;;;;19.91;42.25;102504.91;4928082;29;20283;-83
2021/12/21 11:02:09;;;;;;;36.05;34.05;;;;;;;19.92;42.21;102505.75;4925342;29;20038;-84
2021/12/21 11:04:41;;;;;;;36.63;34.53;;;;;;;19.92;41.92;102503.81;4925237;29;20555;-81
2021/12/21 11:07:34;;;;;;;36.05;33.85;;;;;;;19.94;41.82;102500.81;4911816;29;20388;-83
2021/12/21 11:10:30;;;;;;;35.97;33.25;;;;;;;19.94;41.63;102503.56;4910636;29;20024;-83
2021/12/21 11:12:59;;;;;;;37.03;35.03;;;;;;;19.94;41.62;102506.31;4926304;29;20027;-83
2021/12/21 11:15:29;;;;;;;36.75;34.50;;;;;;;19.95;41.65;102507.94;4931525;29;20084;-82
2021/12/21 11:18:19;;;;;;;36.92;34.40;;;;;;;19.93;41.48;102499.97;4926213;29;20056;-82
2021/12/21 11:20:48;;;;;;;38.28;36.00;;;;;;;19.94;41.08;102498.91;4929577;29;20039;-83
2021/12/21 11:23:15;;;;;;;36.90;34.33;;;;;;;19.95;41.28;102486.00;4913771;29;20038;-83
2021/12/21 11:25:44;;;;;;;36.50;34.25;;;;;;;19.95;40.94;102477.78;4929915;29;20472;-83
2021/12/21 11:28:14;;;;;;;35.67;33.55;;;;;;;19.95;40.88;102477.78;4905727;29;20480;-83
2021/12/21 11:30:41;;;;;;;37.83;35.65;;;;;;;19.95;41.03;102467.63;4921898;29;20146;-84
2021/12/21 11:33:07;;;;;;;36.08;33.97;;;;;;;19.95;40.69;102455.84;4927255;29;20047;-83
2021/12/21 11:38:06;;;;;;;38.55;35.95;;;;;;;19.97;41.12;102448.19;4926873;29;20051;-82
2021/12/21 11:40:36;;;;;;;35.88;33.72;;;;;;;19.96;40.94;102446.50;4926085;29;20036;-82
2021/12/21 11:43:21;;;;;;;37.00;34.95;;;;;;;19.97;41.02;102449.00;4928338;29;20039;-82
2021/12/21 11:46:06;;;;;;;37.75;35.65;;;;;;;19.96;41.32;102447.34;4926921;29;20062;-82
2021/12/21 11:48:48;;;;;;;36.15;33.70;;;;;;;19.97;41.19;102442.69;4927476;29;20044;-79
2021/12/21 11:51:15;;;;;;;36.15;34.25;;;;;;;19.97;41.28;102439.94;4926998;29;20099;-82
2021/12/21 11:53:41;;;;;;;36.28;34.25;;;;;;;19.97;41.14;102434.47;4929809;29;20118;-82
2021/12/21 11:56:07;;;;;;;35.58;33.67;;;;;;;19.98;41.71;102431.47;4925430;29;20112;-82
2021/12/21 11:58:40;;;;;;;35.47;33.58;;;;;;;19.98;41.53;102428.72;4928266;29;20028;-81
2021/12/21 12:01:20;;;;;;;34.65;32.80;;;;;;;19.98;41.34;102430.63;4924904;29;20032;-81
2021/12/21 12:04:12;;;;;;;36.90;34.78;;;;;;;19.98;41.33;102436.94;4924969;29;20123;-81
2021/12/21 12:06:53;;;;;;;34.45;32.55;;;;;;;19.99;41.45;102437.78;4921500;29;20134;-83
2021/12/21 12:09:23;;;;;;;35.80;33.90;;;;;;;19.99;41.40;102433.09;4927070;29;20091;-81
2021/12/21 12:11:48;;;;;;;36.63;34.53;;;;;;;19.99;41.70;102435.03;4927153;29;20063;-82
2021/12/21 12:14:18;;;;;;;37.78;35.55;;;;;;;19.99;41.33;102418.56;4924160;29;20441;-81
2021/12/21 12:16:58;;;;;;;36.20;34.13;;;;;;;19.99;41.79;102413.91;4927842;29;20387;-80
2021/12/21 12:19:33;;;;;;;36.47;34.50;;;;;;;20.01;41.61;102421.88;4928076;29;20152;-81